Time;durP1;ratioP1;P1;durP2;ratioP2;P2;SDS_P1;SDS_P2;PMS_P1;PMS_P2;Temp;Humidity;BMP_temperature;BMP_pressure;BME280_temperature;BME280_humidity;BME280_pressure;Samples;Min_cycle;Max_cycle;Signal;HPM_P1;HPM_P2
2023/07/14 00:01:14;;;;;;;5.38;3.13;;;;;;;;;;5133500;27;20346;-76
2023/07/14 00:03:41;;;;;;;6.80;3.43;;;;;;;;;;5133548;27;20288;-75
2023/07/14 00:06:09;;;;;;;12.07;3.40;;;;;;;;;;5133308;27;20296;-75
2023/07/14 00:08:39;;;;;;;4.78;3.60;;;;;;;;;;5133295;27;20217;-75
2023/07/14 00:11:11;;;;;;;7.30;4.27;;;;;;;;;;5132642;27;20208;-76
2023/07/14 00:13:38;;;;;;;4.68;3.60;;;;;;;;;;5132858;27;20312;-75
2023/07/14 00:16:10;;;;;;;6.00;2.90;;;;;;;;;;5132840;27;20283;-75
2023/07/14 00:18:37;;;;;;;4.55;3.05;;;;;;;;;;5133269;27;20244;-75
2023/07/14 00:21:04;;;;;;;9.60;3.08;;;;;;;;;;5133333;27;20276;-75
2023/07/14 00:23:32;;;;;;;5.53;3.60;;;;;;;;;;5132458;27;20193;-75
2023/07/14 00:25:59;;;;;;;7.10;3.75;;;;;;;;;;5132555;27;20228;-74
2023/07/14 00:28:27;;;;;;;10.85;3.75;;;;;;;;;;5132431;27;20578;-75
2023/07/14 00:30:55;;;;;;;7.57;3.20;;;;;;;;;;5132522;27;20224;-74
2023/07/14 00:33:22;;;;;;;8.63;3.50;;;;;;;;;;5131822;27;20307;-75
2023/07/14 00:35:49;;;;;;;6.57;3.40;;;;;;;;;;5133081;27;20197;-75
2023/07/14 00:38:16;;;;;;;5.85;3.15;;;;;;;;;;5132511;27;20200;-74
2023/07/14 00:40:44;;;;;;;8.27;3.08;;;;;;;;;;5132238;27;20292;-75
2023/07/14 00:43:14;;;;;;;7.68;3.33;;;;;;;;;;5132700;27;20786;-75
2023/07/14 00:45:43;;;;;;;6.53;3.60;;;;;;;;;;5132349;27;20196;-74
2023/07/14 00:48:12;;;;;;;7.13;2.97;;;;;;;;;;5132610;27;20224;-75
2023/07/14 00:50:41;;;;;;;4.97;2.90;;;;;;;;;;5132191;27;20233;-74
2023/07/14 00:53:16;;;;;;;14.35;3.40;;;;;;;;;;5132201;27;20287;-75
2023/07/14 00:55:44;;;;;;;6.22;2.80;;;;;;;;;;5132003;27;20231;-74
2023/07/14 00:58:19;;;;;;;4.37;2.80;;;;;;;;;;5132413;27;20288;-74
2023/07/14 01:01:21;;;;;;;5.95;2.90;;;;;;;;;;5132197;27;20200;-75
2023/07/14 01:03:51;;;;;;;5.80;2.85;;;;;;;;;;5068961;28;20707;-75
2023/07/14 01:06:20;;;;;;;5.27;2.73;;;;;;;;;;5068612;28;20664;-74
2023/07/14 01:08:49;;;;;;;5.57;3.00;;;;;;;;;;5068362;28;20195;-74
2023/07/14 01:11:18;;;;;;;4.53;2.87;;;;;;;;;;5069173;28;20770;-76
2023/07/14 01:13:45;;;;;;;8.03;2.70;;;;;;;;;;5068639;28;20309;-75
2023/07/14 01:16:14;;;;;;;5.10;2.73;;;;;;;;;;5068176;28;20282;-75
2023/07/14 01:18:41;;;;;;;3.83;2.57;;;;;;;;;;5068529;28;20203;-74
2023/07/14 01:21:10;;;;;;;5.47;2.93;;;;;;;;;;5068792;28;20242;-75
2023/07/14 01:23:43;;;;;;;5.73;3.50;;;;;;;;;;5068662;28;20241;-75
2023/07/14 01:26:16;;;;;;;5.20;2.87;;;;;;;;;;5068800;28;20646;-74
2023/07/14 01:28:44;;;;;;;4.10;2.90;;;;;;;;;;5068407;28;20278;-75
2023/07/14 01:31:14;;;;;;;5.23;3.30;;;;;;;;;;5068404;28;20199;-74
2023/07/14 01:33:41;;;;;;;6.10;3.30;;;;;;;;;;5068288;28;20234;-74
2023/07/14 01:36:08;;;;;;;6.93;3.73;;;;;;;;;;5068538;28;20290;-75
2023/07/14 01:38:35;;;;;;;6.50;3.77;;;;;;;;;;5114710;27;20228;-75
2023/07/14 01:41:03;;;;;;;5.10;3.60;;;;;;;;;;5122333;28;20206;-74
2023/07/14 01:43:30;;;;;;;9.03;3.70;;;;;;;;;;5111367;28;20194;-75
2023/07/14 01:46:00;;;;;;;7.57;3.90;;;;;;;;;;5115207;28;20288;-74
2023/07/14 01:48:29;;;;;;;4.17;3.67;;;;;;;;;;5116017;28;20232;-74
2023/07/14 01:50:58;;;;;;;4.87;3.50;;;;;;;;;;5114879;28;20316;-75
2023/07/14 01:53:28;;;;;;;4.87;3.80;;;;;;;;;;5129269;27;20228;-75
2023/07/14 01:55:57;;;;;;;6.83;3.60;;;;;;;;;;5136266;27;20284;-74
2023/07/14 01:58:27;;;;;;;7.07;3.53;;;;;;;;;;5136014;27;20299;-75
2023/07/14 02:00:55;;;;;;;8.80;3.80;;;;;;;;;;5135662;27;20232;-75
2023/07/14 02:03:27;;;;;;;4.73;3.43;;;;;;;;;;5135525;27;20288;-75
2023/07/14 02:05:55;;;;;;;8.87;3.80;;;;;;;;;;5135818;27;20276;-74
2023/07/14 02:08:24;;;;;;;6.33;3.57;;;;;;;;;;5135160;27;20653;-76
2023/07/14 02:10:51;;;;;;;7.27;4.40;;;;;;;;;;5135542;27;20193;-76
2023/07/14 02:13:18;;;;;;;6.00;3.57;;;;;;;;;;5135538;27;20193;-74
2023/07/14 02:15:46;;;;;;;4.30;3.63;;;;;;;;;;5135200;27;21040;-77
2023/07/14 02:18:15;;;;;;;9.00;3.83;;;;;;;;;;5135298;27;20287;-76
2023/07/14 02:20:44;;;;;;;9.87;3.63;;;;;;;;;;5135313;27;20189;-76
2023/07/14 02:23:14;;;;;;;7.13;3.60;;;;;;;;;;5134838;27;20211;-76
2023/07/14 02:25:43;;;;;;;5.73;3.67;;;;;;;;;;5135419;27;20196;-75
2023/07/14 02:28:10;;;;;;;11.37;4.13;;;;;;;;;;5134607;27;20197;-75
2023/07/14 02:30:39;;;;;;;5.97;4.13;;;;;;;;;;5135120;27;20228;-76
2023/07/14 02:33:07;;;;;;;7.07;3.80;;;;;;;;;;5135095;27;20201;-75
2023/07/14 02:35:39;;;;;;;8.77;4.27;;;;;;;;;;5135322;27;20716;-76
2023/07/14 02:38:12;;;;;;;6.43;4.10;;;;;;;;;;5135021;27;20288;-76
2023/07/14 02:40:43;;;;;;;6.40;4.30;;;;;;;;;;5134857;27;20193;-75
2023/07/14 02:43:11;;;;;;;7.80;4.40;;;;;;;;;;5134776;27;20784;-75
2023/07/14 02:45:42;;;;;;;8.40;4.20;;;;;;;;;;5134752;27;20629;-75
2023/07/14 02:48:10;;;;;;;7.53;4.17;;;;;;;;;;5135327;27;20570;-76
2023/07/14 02:50:38;;;;;;;10.97;4.13;;;;;;;;;;5134158;27;20319;-76
2023/07/14 02:53:05;;;;;;;6.07;4.07;;;;;;;;;;5134870;27;20189;-76
2023/07/14 02:55:35;;;;;;;5.83;4.17;;;;;;;;;;5133189;27;20262;-75
2023/07/14 02:58:03;;;;;;;8.90;4.30;;;;;;;;;;5134717;27;20216;-76
2023/07/14 03:00:30;;;;;;;7.37;4.70;;;;;;;;;;5134340;27;20247;-75
2023/07/14 03:02:57;;;;;;;6.13;4.83;;;;;;;;;;5134399;27;20232;-76
2023/07/14 03:05:24;;;;;;;7.80;4.53;;;;;;;;;;5134192;27;20196;-75
2023/07/14 03:07:52;;;;;;;6.07;4.30;;;;;;;;;;5134177;27;20280;-76
2023/07/14 03:10:19;;;;;;;8.60;4.27;;;;;;;;;;5133783;27;20200;-76
2023/07/14 03:12:47;;;;;;;7.60;4.03;;;;;;;;;;5134463;27;20189;-76
2023/07/14 03:15:14;;;;;;;6.17;4.43;;;;;;;;;;5134395;27;20253;-76
2023/07/14 03:17:42;;;;;;;6.83;3.90;;;;;;;;;;5134463;27;20284;-75
2023/07/14 03:20:10;;;;;;;7.33;3.80;;;;;;;;;;5134155;27;20433;-76
2023/07/14 03:22:37;;;;;;;5.73;3.60;;;;;;;;;;5133550;27;20199;-76
2023/07/14 03:25:04;;;;;;;8.17;4.20;;;;;;;;;;5134021;27;20293;-75
2023/07/14 03:27:32;;;;;;;8.13;3.93;;;;;;;;;;5133987;27;20196;-76
2023/07/14 03:30:00;;;;;;;8.50;3.70;;;;;;;;;;5133924;27;20669;-76
2023/07/14 03:32:27;;;;;;;5.13;3.80;;;;;;;;;;5134031;27;20228;-76
2023/07/14 03:34:54;;;;;;;7.97;4.10;;;;;;;;;;5133479;27;20880;-76
2023/07/14 03:37:22;;;;;;;6.90;4.07;;;;;;;;;;5133808;27;20753;-76
2023/07/14 03:39:49;;;;;;;6.43;3.90;;;;;;;;;;5133386;27;20757;-76
2023/07/14 03:42:16;;;;;;;6.17;3.87;;;;;;;;;;5133690;27;20760;-76
2023/07/14 03:44:43;;;;;;;7.37;3.63;;;;;;;;;;5133453;27;20635;-77
2023/07/14 03:47:12;;;;;;;4.47;3.20;;;;;;;;;;5133751;27;20752;-75
2023/07/14 03:49:39;;;;;;;4.77;3.50;;;;;;;;;;5133333;27;20293;-76
2023/07/14 03:52:06;;;;;;;8.63;3.60;;;;;;;;;;5133644;27;20271;-76
2023/07/14 03:54:34;;;;;;;4.87;3.60;;;;;;;;;;5133099;27;20225;-76
2023/07/14 03:57:01;;;;;;;5.00;3.40;;;;;;;;;;5133679;27;20189;-76
2023/07/14 03:59:28;;;;;;;8.40;3.87;;;;;;;;;;5133470;27;20221;-76
2023/07/14 04:01:55;;;;;;;5.10;3.27;;;;;;;;;;5133694;27;20193;-76
2023/07/14 04:04:24;;;;;;;5.70;3.47;;;;;;;;;;5133407;27;20220;-76
2023/07/14 04:06:51;;;;;;;5.07;3.30;;;;;;;;;;5132924;27;20193;-76
2023/07/14 04:09:18;;;;;;;8.83;3.33;;;;;;;;;;5133113;27;20193;-76
2023/07/14 04:11:46;;;;;;;7.27;3.30;;;;;;;;;;5133304;27;20217;-76
2023/07/14 04:14:13;;;;;;;6.53;3.20;;;;;;;;;;5132780;27;20292;-76
2023/07/14 04:16:40;;;;;;;6.33;3.20;;;;;;;;;;5133079;27;20284;-76
2023/07/14 04:19:08;;;;;;;4.83;2.93;;;;;;;;;;5133278;27;20204;-76
2023/07/14 04:21:36;;;;;;;6.17;3.10;;;;;;;;;;5132889;27;20661;-76
2023/07/14 04:24:04;;;;;;;4.67;2.60;;;;;;;;;;5132767;27;20238;-77
2023/07/14 04:26:31;;;;;;;6.47;2.77;;;;;;;;;;5133187;27;20285;-77
2023/07/14 04:28:58;;;;;;;3.60;2.70;;;;;;;;;;5130210;27;20208;-77
2023/07/14 04:31:28;;;;;;;4.87;2.73;;;;;;;;;;5133157;27;20579;-76
2023/07/14 04:33:55;;;;;;;5.80;3.37;;;;;;;;;;5127502;27;20239;-76
2023/07/14 04:36:22;;;;;;;4.53;3.30;;;;;;;;;;5132665;27;20319;-76
2023/07/14 04:39:03;;;;;;;5.27;3.40;;;;;;;;;;5118102;27;20293;-76
2023/07/14 04:41:31;;;;;;;8.10;3.47;;;;;;;;;;5112024;28;20254;-76
2023/07/14 04:43:58;;;;;;;7.70;3.63;;;;;;;;;;5112221;28;20217;-76
2023/07/14 04:46:25;;;;;;;7.37;3.10;;;;;;;;;;5111827;28;20764;-76
2023/07/14 04:48:52;;;;;;;5.27;3.17;;;;;;;;;;5111964;28;20217;-76
2023/07/14 04:51:19;;;;;;;8.03;3.50;;;;;;;;;;5111779;28;20316;-76
2023/07/14 04:53:46;;;;;;;3.90;2.83;;;;;;;;;;5111645;28;20304;-75
2023/07/14 04:56:15;;;;;;;6.27;3.07;;;;;;;;;;5112380;27;20228;-75
2023/07/14 04:58:43;;;;;;;4.63;3.20;;;;;;;;;;5111484;28;20284;-75
2023/07/14 05:01:10;;;;;;;5.57;2.90;;;;;;;;;;5111205;28;20193;-75
2023/07/14 05:03:37;;;;;;;4.17;2.87;;;;;;;;;;5112139;28;20604;-75
2023/07/14 05:06:04;;;;;;;5.70;3.17;;;;;;;;;;5111411;28;20208;-76
2023/07/14 05:08:31;;;;;;;4.53;2.70;;;;;;;;;;5111784;28;20194;-75
2023/07/14 05:10:58;;;;;;;3.83;2.70;;;;;;;;;;5111511;28;20632;-75
2023/07/14 05:13:27;;;;;;;5.83;3.13;;;;;;;;;;5111459;28;20554;-76
2023/07/14 05:15:57;;;;;;;5.60;3.00;;;;;;;;;;5117387;27;20788;-75
2023/07/14 05:18:24;;;;;;;5.07;3.10;;;;;;;;;;5122469;27;20709;-75
2023/07/14 05:20:52;;;;;;;6.33;2.90;;;;;;;;;;5111274;28;20197;-76
2023/07/14 05:23:19;;;;;;;4.30;3.17;;;;;;;;;;5129730;27;20236;-75
2023/07/14 05:25:47;;;;;;;7.93;3.17;;;;;;;;;;5132316;27;20220;-76
2023/07/14 05:28:14;;;;;;;8.07;3.67;;;;;;;;;;5132129;27;20291;-75
2023/07/14 05:30:42;;;;;;;5.73;2.70;;;;;;;;;;5131884;27;20284;-75
2023/07/14 05:33:12;;;;;;;4.47;2.67;;;;;;;;;;5131762;27;20207;-76
2023/07/14 05:35:39;;;;;;;4.93;2.23;;;;;;;;;;5126079;27;20628;-75
2023/07/14 05:38:06;;;;;;;4.97;2.87;;;;;;;;;;5120813;28;20252;-75
2023/07/14 05:40:34;;;;;;;4.47;2.53;;;;;;;;;;5110977;28;20222;-75
2023/07/14 05:43:01;;;;;;;7.80;2.97;;;;;;;;;;5111573;28;20293;-74
2023/07/14 05:45:28;;;;;;;3.53;2.70;;;;;;;;;;5110975;28;20289;-75
2023/07/14 05:47:57;;;;;;;4.33;2.40;;;;;;;;;;5111714;28;20199;-76
2023/07/14 05:50:24;;;;;;;5.23;2.70;;;;;;;;;;5110767;28;20245;-75
2023/07/14 05:52:51;;;;;;;5.23;2.60;;;;;;;;;;5131407;28;20669;-75
2023/07/14 05:55:19;;;;;;;4.70;2.93;;;;;;;;;;5132083;27;20657;-75
2023/07/14 05:57:46;;;;;;;5.83;2.67;;;;;;;;;;5128133;27;20645;-75
2023/07/14 06:00:16;;;;;;;5.50;2.40;;;;;;;;;;5103547;27;20229;-75
2023/07/14 06:02:44;;;;;;;4.97;2.67;;;;;;;;;;5126229;27;20208;-75
2023/07/14 06:05:13;;;;;;;4.13;2.60;;;;;;;;;;5124626;27;20248;-76
2023/07/14 06:07:41;;;;;;;6.10;2.30;;;;;;;;;;5125833;27;20229;-75
2023/07/14 06:10:09;;;;;;;3.15;2.22;;;;;;;;;;5126331;27;20205;-75
2023/07/14 06:12:38;;;;;;;4.53;2.42;;;;;;;;;;5126660;27;20288;-76
2023/07/14 06:15:05;;;;;;;5.85;2.42;;;;;;;;;;5125852;27;20291;-75
2023/07/14 06:17:33;;;;;;;7.60;2.80;;;;;;;;;;5124002;28;20288;-76
2023/07/14 06:20:00;;;;;;;4.68;2.53;;;;;;;;;;5125561;27;20583;-75
2023/07/14 06:22:28;;;;;;;5.97;2.10;;;;;;;;;;5125594;27;20288;-75
2023/07/14 06:24:55;;;;;;;4.07;2.47;;;;;;;;;;5123430;28;20293;-75
2023/07/14 06:27:24;;;;;;;3.92;2.20;;;;;;;;;;5123888;27;20211;-75
2023/07/14 06:29:51;;;;;;;4.10;2.33;;;;;;;;;;5125073;27;20304;-76
2023/07/14 06:32:18;;;;;;;4.68;2.22;;;;;;;;;;5129838;27;20236;-76
2023/07/14 06:34:46;;;;;;;4.63;2.33;;;;;;;;;;5129124;27;20697;-75
2023/07/14 06:37:13;;;;;;;3.78;2.35;;;;;;;;;;5129709;27;20655;-75
2023/07/14 06:39:42;;;;;;;4.00;2.28;;;;;;;;;;5129778;27;20262;-75
2023/07/14 06:42:10;;;;;;;4.60;1.90;;;;;;;;;;5129290;27;20284;-76
2023/07/14 06:44:37;;;;;;;4.78;2.17;;;;;;;;;;5129993;27;20212;-75
2023/07/14 06:47:05;;;;;;;4.25;1.95;;;;;;;;;;5129533;27;20739;-76
2023/07/14 06:49:32;;;;;;;3.78;2.20;;;;;;;;;;5129008;27;20287;-75
2023/07/14 06:51:59;;;;;;;3.90;2.00;;;;;;;;;;5127595;27;20312;-76
2023/07/14 06:54:26;;;;;;;3.50;2.30;;;;;;;;;;5128299;27;20197;-76
2023/07/14 06:56:56;;;;;;;2.97;1.90;;;;;;;;;;5129069;27;20232;-75
2023/07/14 06:59:24;;;;;;;3.85;1.92;;;;;;;;;;5127126;27;20238;-75
2023/07/14 07:01:51;;;;;;;4.82;2.20;;;;;;;;;;5129540;27;20205;-76
2023/07/14 07:04:18;;;;;;;4.15;2.20;;;;;;;;;;5124425;27;20661;-75
2023/07/14 07:06:45;;;;;;;5.47;2.10;;;;;;;;;;5128265;27;20634;-75
2023/07/14 07:09:12;;;;;;;4.28;2.15;;;;;;;;;;5128964;27;20251;-75
2023/07/14 07:11:40;;;;;;;4.75;1.98;;;;;;;;;;5127975;27;20228;-75
2023/07/14 07:14:08;;;;;;;2.88;2.00;;;;;;;;;;5128675;27;20220;-75
2023/07/14 07:16:36;;;;;;;4.55;2.13;;;;;;;;;;5128448;27;20320;-75
2023/07/14 07:19:03;;;;;;;3.40;2.15;;;;;;;;;;5129161;27;20219;-75
2023/07/14 07:21:30;;;;;;;4.68;2.40;;;;;;;;;;5129607;27;20275;-76
2023/07/14 07:23:57;;;;;;;4.55;2.47;;;;;;;;;;5128579;27;20709;-75
2023/07/14 07:26:24;;;;;;;5.22;2.60;;;;;;;;;;5128998;27;20658;-75
2023/07/14 07:28:52;;;;;;;3.80;2.00;;;;;;;;;;5129892;27;20197;-76
2023/07/14 07:31:21;;;;;;;5.93;2.20;;;;;;;;;;5128528;27;20201;-76
2023/07/14 07:33:48;;;;;;;4.28;2.40;;;;;;;;;;5123368;27;20198;-75
2023/07/14 07:36:16;;;;;;;2.75;2.10;;;;;;;;;;5128992;27;20229;-75
2023/07/14 07:38:45;;;;;;;4.53;2.28;;;;;;;;;;5127283;27;20232;-75
2023/07/14 07:41:12;;;;;;;4.30;2.10;;;;;;;;;;5128135;27;20209;-75
2023/07/14 07:43:39;;;;;;;3.72;2.22;;;;;;;;;;5126570;27;20239;-75
2023/07/14 07:46:06;;;;;;;3.25;2.13;;;;;;;;;;5125900;27;20284;-75
2023/07/14 07:48:35;;;;;;;4.68;2.42;;;;;;;;;;5125179;27;20228;-76
2023/07/14 07:51:02;;;;;;;4.85;2.25;;;;;;;;;;5128270;27;20233;-75
2023/07/14 07:53:30;;;;;;;4.18;2.08;;;;;;;;;;5128583;27;20288;-75
2023/07/14 07:55:58;;;;;;;4.63;2.03;;;;;;;;;;5128136;27;20216;-75
2023/07/14 07:58:25;;;;;;;4.60;2.22;;;;;;;;;;5128602;27;20291;-74
2023/07/14 08:00:54;;;;;;;4.90;2.08;;;;;;;;;;5125977;27;20284;-75
2023/07/14 08:03:21;;;;;;;5.45;2.05;;;;;;;;;;5128665;27;20582;-74
2023/07/14 08:05:49;;;;;;;3.97;2.10;;;;;;;;;;5124649;27;20193;-75
2023/07/14 08:08:17;;;;;;;3.65;2.22;;;;;;;;;;5127738;27;20729;-75
2023/07/14 08:10:45;;;;;;;4.43;2.08;;;;;;;;;;5128316;27;20221;-75
2023/07/14 08:13:13;;;;;;;4.35;1.92;;;;;;;;;;5127897;27;20205;-75
2023/07/14 08:15:40;;;;;;;4.47;2.50;;;;;;;;;;5127756;27;20288;-75
2023/07/14 08:18:08;;;;;;;3.05;1.70;;;;;;;;;;5127119;27;20220;-73
2023/07/14 08:20:37;;;;;;;2.70;2.00;;;;;;;;;;5126301;27;20193;-74
2023/07/14 08:23:06;;;;;;;3.15;1.77;;;;;;;;;;5125730;27;20192;-74
2023/07/14 08:25:33;;;;;;;3.78;2.03;;;;;;;;;;5126609;27;20196;-76
2023/07/14 08:28:00;;;;;;;2.55;1.85;;;;;;;;;;5126856;27;20276;-76
2023/07/14 08:30:28;;;;;;;3.53;1.95;;;;;;;;;;5126258;27;20239;-75
2023/07/14 08:32:55;;;;;;;2.53;1.60;;;;;;;;;;5126770;27;20193;-74
2023/07/14 08:35:22;;;;;;;3.72;1.58;;;;;;;;;;5126978;27;20199;-75
2023/07/14 08:37:50;;;;;;;2.47;1.63;;;;;;;;;;5126956;27;20344;-76
2023/07/14 08:40:20;;;;;;;6.07;1.83;;;;;;;;;;5127562;27;20189;-74
2023/07/14 08:42:51;;;;;;;5.13;1.83;;;;;;;;;;5127348;27;20193;-75
2023/07/14 08:45:28;;;;;;;3.28;1.52;;;;;;;;;;5127506;27;20699;-75
2023/07/14 08:48:00;;;;;;;3.10;1.60;;;;;;;;;;5124490;27;20228;-75
2023/07/14 08:50:29;;;;;;;2.58;1.40;;;;;;;;;;5126673;27;20323;-76
2023/07/14 08:53:03;;;;;;;4.28;1.60;;;;;;;;;;5126385;27;20494;-75
2023/07/14 08:55:33;;;;;;;3.35;1.90;;;;;;;;;;5124659;27;20197;-75
2023/07/14 08:58:04;;;;;;;3.90;1.77;;;;;;;;;;5126983;27;20708;-74
2023/07/14 09:00:34;;;;;;;3.13;1.60;;;;;;;;;;5125342;27;20677;-75
2023/07/14 09:03:05;;;;;;;4.32;1.42;;;;;;;;;;5124382;27;20216;-75
2023/07/14 09:05:33;;;;;;;3.63;1.42;;;;;;;;;;5127216;27;20224;-75
2023/07/14 09:08:01;;;;;;;3.75;1.50;;;;;;;;;;5125568;27;20209;-74
2023/07/14 09:10:32;;;;;;;3.15;1.50;;;;;;;;;;5125900;27;20235;-73
2023/07/14 09:13:06;;;;;;;4.95;1.40;;;;;;;;;;5127251;27;20586;-75
2023/07/14 09:15:34;;;;;;;2.90;1.30;;;;;;;;;;5126986;27;20192;-75
2023/07/14 09:18:07;;;;;;;3.80;1.80;;;;;;;;;;5125549;27;20220;-74
2023/07/14 09:20:55;;;;;;;4.05;1.50;;;;;;;;;;5127646;27;20208;-75
2023/07/14 09:23:29;;;;;;;3.60;1.35;;;;;;;;;;5122558;28;20239;-76
2023/07/14 09:25:57;;;;;;;4.65;1.50;;;;;;;;;;5126664;27;20217;-75
2023/07/14 09:28:33;;;;;;;2.55;1.55;;;;;;;;;;5127201;27;20262;-75
2023/07/14 09:31:03;;;;;;;4.13;1.65;;;;;;;;;;5127162;27;20199;-75
2023/07/14 09:33:31;;;;;;;3.10;1.60;;;;;;;;;;5127924;27;20284;-76
2023/07/14 09:35:59;;;;;;;2.50;1.60;;;;;;;;;;5122727;27;20675;-76
2023/07/14 09:38:28;;;;;;;2.30;1.38;;;;;;;;;;5125316;27;20774;-75
2023/07/14 09:40:58;;;;;;;2.47;1.60;;;;;;;;;;5124915;28;20300;-75
2023/07/14 09:43:27;;;;;;;4.28;1.65;;;;;;;;;;5125510;27;20287;-75
2023/07/14 09:45:55;;;;;;;3.22;1.58;;;;;;;;;;5125438;27;20201;-76
2023/07/14 09:48:26;;;;;;;2.28;1.48;;;;;;;;;;5127504;27;20197;-75
2023/07/14 09:50:56;;;;;;;5.32;1.75;;;;;;;;;;5125564;28;20264;-76
2023/07/14 09:53:23;;;;;;;2.83;1.63;;;;;;;;;;5128177;27;20212;-75
2023/07/14 09:55:52;;;;;;;2.72;1.73;;;;;;;;;;5127695;27;20588;-76
2023/07/14 09:58:22;;;;;;;4.50;1.70;;;;;;;;;;5124983;27;20664;-75
2023/07/14 10:00:51;;;;;;;3.83;1.50;;;;;;;;;;5128771;27;20221;-76
2023/07/14 10:03:19;;;;;;;3.00;1.50;;;;;;;;;;5125634;27;20672;-75
2023/07/14 10:05:52;;;;;;;2.78;1.50;;;;;;;;;;5130314;27;20192;-75
2023/07/14 10:08:27;;;;;;;5.05;1.88;;;;;;;;;;5127866;27;20213;-77
2023/07/14 10:10:56;;;;;;;2.70;1.70;;;;;;;;;;5130232;27;20799;-75
2023/07/14 10:13:26;;;;;;;2.33;1.80;;;;;;;;;;5130907;27;20225;-75
2023/07/14 10:15:57;;;;;;;3.35;1.88;;;;;;;;;;5127644;27;20205;-76
2023/07/14 10:18:27;;;;;;;2.53;1.67;;;;;;;;;;5133786;27;20220;-75
2023/07/14 10:21:05;;;;;;;3.88;1.92;;;;;;;;;;5134208;27;20264;-75
2023/07/14 10:23:33;;;;;;;7.88;1.92;;;;;;;;;;5132271;27;20213;-76
2023/07/14 10:26:02;;;;;;;2.70;1.60;;;;;;;;;;5131781;27;20228;-75
2023/07/14 10:28:30;;;;;;;3.05;1.73;;;;;;;;;;5132400;27;20197;-75
2023/07/14 10:31:02;;;;;;;2.15;1.77;;;;;;;;;;5132055;27;20225;-75
2023/07/14 10:33:33;;;;;;;3.85;2.00;;;;;;;;;;5134020;27;20195;-76
2023/07/14 10:36:01;;;;;;;3.03;1.70;;;;;;;;;;5132659;27;20625;-76
2023/07/14 10:38:30;;;;;;;3.15;1.52;;;;;;;;;;5132811;27;20244;-76
2023/07/14 10:41:00;;;;;;;3.47;1.50;;;;;;;;;;5134941;27;20578;-76
2023/07/14 10:43:29;;;;;;;4.55;1.70;;;;;;;;;;5135496;27;20197;-76
2023/07/14 10:45:58;;;;;;;4.75;1.80;;;;;;;;;;5134813;27;20234;-76
2023/07/14 10:48:28;;;;;;;5.95;1.88;;;;;;;;;;5132170;27;20204;-76
2023/07/14 10:50:58;;;;;;;3.65;1.50;;;;;;;;;;5133132;27;20342;-76
2023/07/14 10:53:28;;;;;;;2.95;1.98;;;;;;;;;;5133735;27;20227;-76
2023/07/14 10:55:57;;;;;;;3.95;1.65;;;;;;;;;;5132912;27;20242;-76
2023/07/14 10:58:29;;;;;;;5.15;1.70;;;;;;;;;;5132996;27;20221;-77
2023/07/14 11:00:59;;;;;;;3.45;1.73;;;;;;;;;;5125618;27;20236;-76
2023/07/14 11:03:30;;;;;;;4.70;1.60;;;;;;;;;;5133006;27;20189;-76
2023/07/14 11:05:59;;;;;;;2.72;1.60;;;;;;;;;;5139538;27;20756;-74
2023/07/14 11:08:27;;;;;;;4.30;1.75;;;;;;;;;;5155816;27;20287;-76
2023/07/14 11:10:57;;;;;;;5.93;1.77;;;;;;;;;;5155439;27;20200;-76
2023/07/14 11:13:31;;;;;;;2.95;1.60;;;;;;;;;;5154801;27;20223;-76
2023/07/14 11:16:03;;;;;;;4.55;1.80;;;;;;;;;;5154607;27;20378;-77
2023/07/14 11:18:35;;;;;;;4.95;1.70;;;;;;;;;;5133062;27;20259;-77
2023/07/14 11:21:18;;;;;;;5.75;1.85;;;;;;;;;;5134069;27;20193;-76
2023/07/14 11:23:49;;;;;;;6.47;1.88;;;;;;;;;;5134060;27;20340;-76
2023/07/14 11:26:19;;;;;;;4.68;1.75;;;;;;;;;;5134226;27;20287;-77
2023/07/14 11:28:51;;;;;;;4.25;1.65;;;;;;;;;;5134437;27;20193;-76
2023/07/14 11:31:21;;;;;;;6.57;1.77;;;;;;;;;;5134021;27;20686;-76
2023/07/14 11:33:52;;;;;;;2.17;1.88;;;;;;;;;;5133722;27;20224;-75
2023/07/14 11:36:20;;;;;;;2.85;1.67;;;;;;;;;;5134385;27;20228;-78
2023/07/14 11:38:52;;;;;;;3.47;1.90;;;;;;;;;;5133941;27;20221;-77
2023/07/14 11:41:20;;;;;;;5.70;2.05;;;;;;;;;;5134203;27;20195;-75
2023/07/14 11:43:48;;;;;;;3.05;1.70;;;;;;;;;;5133935;27;20292;-76
2023/07/14 11:46:17;;;;;;;8.85;1.70;;;;;;;;;;5133904;27;20637;-76
2023/07/14 11:48:45;;;;;;;4.30;1.90;;;;;;;;;;5133371;27;20227;-76
2023/07/14 11:51:15;;;;;;;2.65;1.90;;;;;;;;;;5133821;27;20273;-77
2023/07/14 11:53:43;;;;;;;4.18;1.52;;;;;;;;;;5133632;27;20293;-77
2023/07/14 11:56:23;;;;;;;2.78;1.75;;;;;;;;;;5134007;27;20200;-76
2023/07/14 11:58:52;;;;;;;2.28;1.70;;;;;;;;;;5133207;27;20224;-77
2023/07/14 12:01:28;;;;;;;5.78;1.60;;;;;;;;;;5133111;27;20197;-77
2023/07/14 12:04:15;;;;;;;3.83;1.80;;;;;;;;;;5133560;27;20220;-77
2023/07/14 12:06:47;;;;;;;6.47;2.40;;;;;;;;;;5133405;27;20204;-76
2023/07/14 12:09:16;;;;;;;3.53;2.03;;;;;;;;;;5133412;27;20287;-77
2023/07/14 12:12:02;;;;;;;2.30;1.70;;;;;;;;;;5133780;27;20292;-75
2023/07/14 12:14:32;;;;;;;3.97;1.88;;;;;;;;;;5133578;27;20201;-77
2023/07/14 12:17:00;;;;;;;4.30;1.70;;;;;;;;;;5135043;27;20284;-77
2023/07/14 12:19:31;;;;;;;3.88;1.90;;;;;;;;;;5139961;27;20287;-77
2023/07/14 12:22:03;;;;;;;3.25;1.40;;;;;;;;;;5136300;27;20200;-76
2023/07/14 12:24:32;;;;;;;5.07;1.98;;;;;;;;;;5131904;27;20204;-77
2023/07/14 12:27:09;;;;;;;3.03;1.65;;;;;;;;;;5135782;27;20193;-77
2023/07/14 12:29:36;;;;;;;8.32;1.92;;;;;;;;;;5132601;27;20253;-77
2023/07/14 12:32:03;;;;;;;3.88;2.00;;;;;;;;;;5149286;27;20283;-76
2023/07/14 12:34:32;;;;;;;3.05;1.88;;;;;;;;;;5151956;27;20283;-77
2023/07/14 12:37:02;;;;;;;2.67;1.90;;;;;;;;;;5142006;27;20192;-77
2023/07/14 12:39:30;;;;;;;2.78;1.90;;;;;;;;;;5143836;27;20253;-77
2023/07/14 12:41:57;;;;;;;4.05;2.15;;;;;;;;;;5149318;27;20197;-76
2023/07/14 12:44:26;;;;;;;2.35;1.75;;;;;;;;;;5138667;27;20224;-77
2023/07/14 12:46:55;;;;;;;3.53;1.92;;;;;;;;;;5139876;27;20209;-78
2023/07/14 12:49:27;;;;;;;3.33;1.92;;;;;;;;;;5144044;27;20287;-78
2023/07/14 12:51:55;;;;;;;4.55;1.58;;;;;;;;;;5132226;27;20315;-77
2023/07/14 12:54:27;;;;;;;3.97;1.58;;;;;;;;;;5134802;27;20220;-77
2023/07/14 12:56:55;;;;;;;2.22;1.63;;;;;;;;;;5147868;27;20289;-75
2023/07/14 12:59:22;;;;;;;2.28;1.70;;;;;;;;;;5140531;27;20315;-76
2023/07/14 13:01:57;;;;;;;3.28;1.75;;;;;;;;;;5139327;27;20200;-79
2023/07/14 13:04:26;;;;;;;3.28;1.58;;;;;;;;;;5126450;27;20196;-76
2023/07/14 13:06:55;;;;;;;4.07;1.75;;;;;;;;;;5121012;27;20270;-77
2023/07/14 13:09:25;;;;;;;4.03;1.35;;;;;;;;;;5123465;27;20201;-75
2023/07/14 13:11:54;;;;;;;1.77;1.60;;;;;;;;;;5132152;27;20304;-75
2023/07/14 13:14:23;;;;;;;6.95;1.60;;;;;;;;;;5131866;27;20220;-77
2023/07/14 13:16:52;;;;;;;2.05;1.60;;;;;;;;;;5131749;27;20228;-75
2023/07/14 13:19:24;;;;;;;3.70;1.30;;;;;;;;;;5124015;27;20231;-75
2023/07/14 13:21:51;;;;;;;2.60;1.70;;;;;;;;;;5126533;28;20788;-74
2023/07/14 13:24:20;;;;;;;3.05;1.38;;;;;;;;;;5125816;28;20584;-75
2023/07/14 13:26:56;;;;;;;3.80;1.50;;;;;;;;;;5111392;28;20689;-74
2023/07/14 13:29:25;;;;;;;4.32;1.70;;;;;;;;;;5118292;28;20292;-75
2023/07/14 13:31:56;;;;;;;2.63;1.40;;;;;;;;;;5124109;28;20197;-74
2023/07/14 13:34:25;;;;;;;3.92;1.45;;;;;;;;;;5111959;28;20223;-74
2023/07/14 13:36:53;;;;;;;2.38;1.45;;;;;;;;;;5126741;27;20235;-75
2023/07/14 13:39:23;;;;;;;2.90;1.30;;;;;;;;;;5130013;27;20240;-75
2023/07/14 13:41:50;;;;;;;2.08;1.48;;;;;;;;;;5135985;27;20223;-75
2023/07/14 13:44:30;;;;;;;4.05;1.30;;;;;;;;;;5135573;27;20228;-74
2023/07/14 13:46:57;;;;;;;2.03;1.50;;;;;;;;;;5136146;27;20193;-75
2023/07/14 13:49:24;;;;;;;2.53;1.50;;;;;;;;;;5135937;27;20233;-75
2023/07/14 13:51:53;;;;;;;3.65;1.67;;;;;;;;;;5135466;27;20315;-74
2023/07/14 13:54:21;;;;;;;1.73;1.50;;;;;;;;;;5135671;27;20200;-75
2023/07/14 13:56:49;;;;;;;3.17;1.50;;;;;;;;;;5135723;27;20221;-76
2023/07/14 13:59:18;;;;;;;2.28;1.30;;;;;;;;;;5131193;27;20255;-75
2023/07/14 14:01:48;;;;;;;2.80;1.50;;;;;;;;;;5124157;27;20745;-76
2023/07/14 14:04:16;;;;;;;3.67;1.55;;;;;;;;;;5115220;28;20250;-75
2023/07/14 14:06:43;;;;;;;4.88;1.70;;;;;;;;;;5122252;27;20700;-75
2023/07/14 14:09:19;;;;;;;2.30;1.48;;;;;;;;;;5138072;27;20200;-75
2023/07/14 14:11:48;;;;;;;3.33;1.48;;;;;;;;;;5141301;27;20203;-75
2023/07/14 14:14:20;;;;;;;3.45;1.50;;;;;;;;;;5156372;27;20196;-77
2023/07/14 14:16:50;;;;;;;2.17;1.30;;;;;;;;;;5145329;27;20215;-75
2023/07/14 14:19:20;;;;;;;5.13;1.40;;;;;;;;;;5134735;27;20263;-75
2023/07/14 14:21:47;;;;;;;3.30;1.40;;;;;;;;;;5135067;27;20469;-76
2023/07/14 14:24:16;;;;;;;3.92;1.50;;;;;;;;;;5135237;27;20457;-74
2023/07/14 14:26:43;;;;;;;3.22;1.33;;;;;;;;;;5134826;27;20219;-74
2023/07/14 14:29:10;;;;;;;2.22;1.55;;;;;;;;;;5135796;27;20284;-74
2023/07/14 14:31:37;;;;;;;4.00;1.52;;;;;;;;;;5138795;27;20221;-74
2023/07/14 14:34:10;;;;;;;2.28;1.70;;;;;;;;;;5136782;27;20228;-74
2023/07/14 14:36:37;;;;;;;1.70;1.48;;;;;;;;;;5137189;27;20239;-73
2023/07/14 14:39:06;;;;;;;3.05;1.38;;;;;;;;;;5133062;27;20374;-74
2023/07/14 14:41:34;;;;;;;7.40;1.63;;;;;;;;;;5136669;27;20316;-75
2023/07/14 14:44:02;;;;;;;2.00;1.40;;;;;;;;;;5134461;27;20221;-75
2023/07/14 14:46:29;;;;;;;2.47;1.48;;;;;;;;;;5138787;27;20197;-75
2023/07/14 14:48:57;;;;;;;2.35;1.40;;;;;;;;;;5140904;27;20222;-75
2023/07/14 14:51:25;;;;;;;3.22;1.60;;;;;;;;;;5136431;27;20635;-74
2023/07/14 14:53:53;;;;;;;2.75;1.50;;;;;;;;;;5135295;27;20292;-74